Time;durP1;ratioP1;P1;durP2;ratioP2;P2;SDS_P1;SDS_P2;PMS_P1;PMS_P2;Temp;Humidity;BMP_temperature;BMP_pressure;BME280_temperature;BME280_humidity;BME280_pressure;Samples;Min_cycle;Max_cycle;Signal;HPM_P1;HPM_P2
2023/03/13 00:02:29;;;;;;;22.40;12.00;;;;;;;1.11;74.39;99938.08;102541;279;114502;-60
2023/03/13 00:05:06;;;;;;;22.60;12.10;;;;;;;1.15;74.39;99938.06;102499;279;93529;-61
2023/03/13 00:07:44;;;;;;;21.70;10.80;;;;;;;1.16;74.45;99930.35;102519;279;98006;-61
2023/03/13 00:10:20;;;;;;;23.60;11.60;;;;;;;1.18;74.32;99927.84;102493;278;118994;-58
2023/03/13 00:12:55;;;;;;;19.30;10.10;;;;;;;1.17;74.25;99925.06;102554;279;105003;-58
2023/03/13 00:15:33;;;;;;;19.30;10.50;;;;;;;1.17;74.21;99924.05;102513;278;115139;-58
2023/03/13 00:18:10;;;;;;;22.40;11.20;;;;;;;1.16;74.19;99923.26;102518;278;93155;-60
2023/03/13 00:20:50;;;;;;;18.80;9.00;;;;;;;1.16;74.15;99927.89;102479;279;97247;-60
2023/03/13 00:23:31;;;;;;;17.40;9.20;;;;;;;1.15;74.20;99928.95;102481;279;119259;-61
2023/03/13 00:26:10;;;;;;;15.60;9.10;;;;;;;1.17;74.16;99928.27;102527;279;105413;-62
2023/03/13 00:28:50;;;;;;;18.00;9.90;;;;;;;1.21;74.20;99927.41;102540;279;114049;-60
2023/03/13 00:31:31;;;;;;;16.00;8.60;;;;;;;1.23;74.22;99923.70;102495;278;93421;-62
2023/03/13 00:34:09;;;;;;;13.70;8.20;;;;;;;1.27;74.25;99930.80;102529;278;97735;-60
2023/03/13 00:36:48;;;;;;;14.10;8.30;;;;;;;1.31;74.29;99936.95;102509;278;119767;-60
2023/03/13 00:39:26;;;;;;;14.90;8.20;;;;;;;1.33;74.18;99934.09;102523;279;105816;-61
2023/03/13 00:42:08;;;;;;;13.70;7.20;;;;;;;1.35;74.12;99930.89;102518;274;114056;-60
2023/03/13 00:44:48;;;;;;;13.10;7.10;;;;;;;1.35;74.07;99929.63;102486;279;92791;-61
2023/03/13 00:47:32;;;;;;;15.60;7.80;;;;;;;1.35;74.14;99924.84;102485;267;98253;-62
2023/03/13 00:50:11;;;;;;;14.60;7.90;;;;;;;1.34;74.13;99923.35;102509;279;119963;-61
2023/03/13 00:52:50;;;;;;;15.30;8.20;;;;;;;1.34;74.08;99925.63;102496;279;106060;-61
2023/03/13 00:55:31;;;;;;;16.30;8.20;;;;;;;1.34;74.18;99923.73;102493;279;114559;-60
2023/03/13 00:58:08;;;;;;;17.30;8.70;;;;;;;1.33;74.32;99925.71;102484;279;96185;-60
2023/03/13 01:00:43;;;;;;;16.90;9.40;;;;;;;1.36;74.29;99925.06;102475;266;96455;-59
2023/03/13 01:03:25;;;;;;;17.90;9.40;;;;;;;1.40;74.24;99917.24;102524;279;119017;-56
2023/03/13 01:06:08;;;;;;;21.30;9.70;;;;;;;1.42;74.41;99910.52;102488;279;106856;-56
2023/03/13 01:08:45;;;;;;;19.50;10.40;;;;;;;1.43;74.36;99904.73;102492;279;114183;-60
2023/03/13 01:11:25;;;;;;;21.90;10.50;;;;;;;1.43;74.47;99898.36;102511;279;93780;-60
2023/03/13 01:14:01;;;;;;;19.10;9.00;;;;;;;1.44;74.46;99894.91;102545;279;98206;-59
2023/03/13 01:16:37;;;;;;;16.60;9.30;;;;;;;1.40;74.39;99887.07;102515;279;118366;-60
2023/03/13 01:19:14;;;;;;;17.70;8.50;;;;;;;1.39;74.48;99886.25;102528;279;105654;-57
2023/03/13 01:21:52;;;;;;;14.80;8.10;;;;;;;1.40;74.54;99882.54;102542;279;114348;-58
2023/03/13 01:24:28;;;;;;;18.10;8.80;;;;;;;1.41;74.60;99880.77;102495;279;94645;-56
2023/03/13 01:27:06;;;;;;;19.30;9.70;;;;;;;1.41;74.73;99874.21;102506;279;98069;-56
2023/03/13 01:29:50;;;;;;;23.70;11.50;;;;;;;1.43;74.85;99869.98;102546;278;119987;-54
2023/03/13 01:32:35;;;;;;;30.00;14.60;;;;;;;1.45;74.89;99874.40;102508;279;105404;-55
2023/03/13 01:35:13;;;;;;;24.40;12.80;;;;;;;1.45;74.84;99873.90;102520;279;114610;-62
2023/03/13 01:37:51;;;;;;;25.90;14.60;;;;;;;1.46;74.81;99866.67;102534;279;93097;-63
2023/03/13 01:40:28;;;;;;;36.30;15.90;;;;;;;1.47;74.83;99867.27;102495;279;97493;-60
2023/03/13 01:43:17;;;;;;;22.30;11.30;;;;;;;1.47;74.91;99858.06;102522;279;120068;-60
2023/03/13 01:46:05;;;;;;;21.20;10.10;;;;;;;1.46;74.92;99851.37;102537;278;105173;-61
2023/03/13 01:48:47;;;;;;;19.50;8.50;;;;;;;1.48;74.78;99844.67;102568;278;114148;-58
2023/03/13 01:51:26;;;;;;;14.30;8.30;;;;;;;1.49;74.80;99839.54;102473;278;96082;-57
2023/03/13 01:54:10;;;;;;;13.10;6.40;;;;;;;1.52;74.76;99836.31;102498;279;96331;-62
2023/03/13 01:56:51;;;;;;;13.30;7.50;;;;;;;1.55;74.79;99840.02;102493;275;119644;-62
2023/03/13 01:59:32;;;;;;;8.40;6.10;;;;;;;1.63;74.82;99840.73;102532;278;105974;-57
2023/03/13 02:02:15;;;;;;;10.50;6.20;;;;;;;1.70;74.93;99834.83;102484;279;114743;-57
2023/03/13 02:04:55;;;;;;;10.40;6.00;;;;;;;1.75;74.73;99834.93;102564;279;93141;-54
2023/03/13 02:07:42;;;;;;;11.90;6.70;;;;;;;1.78;74.79;99829.45;102564;279;96566;-57
2023/03/13 02:10:20;;;;;;;14.40;7.50;;;;;;;1.81;74.72;99822.71;102511;279;119406;-62
2023/03/13 02:13:01;;;;;;;11.00;6.20;;;;;;;1.80;74.71;99823.30;102524;279;105685;-56
2023/03/13 02:15:36;;;;;;;13.10;7.00;;;;;;;1.78;74.67;99825.89;102486;279;114181;-57
2023/03/13 02:18:12;;;;;;;15.50;7.90;;;;;;;1.80;74.63;99826.64;102493;278;95745;-63
2023/03/13 02:20:47;;;;;;;14.90;8.10;;;;;;;1.83;74.56;99830.86;102546;278;97470;-63
2023/03/13 02:23:31;;;;;;;13.20;7.30;;;;;;;1.84;74.59;99828.18;102538;279;119612;-58
2023/03/13 02:26:08;;;;;;;14.50;7.80;;;;;;;1.90;74.56;99827.10;102512;279;105260;-59
2023/03/13 02:28:44;;;;;;;15.40;7.40;;;;;;;1.92;74.56;99827.59;102546;279;113349;-55
2023/03/13 02:31:20;;;;;;;16.40;8.20;;;;;;;1.96;74.59;99825.45;102485;279;93386;-56
2023/03/13 02:34:02;;;;;;;18.40;8.10;;;;;;;2.00;74.51;99825.64;102524;279;97403;-56
2023/03/13 02:36:40;;;;;;;12.90;7.60;;;;;;;1.99;74.47;99825.86;102542;278;120139;-57
2023/03/13 02:39:23;;;;;;;15.50;9.20;;;;;;;1.99;74.58;99827.10;102563;279;105568;-61
2023/03/13 02:42:02;;;;;;;14.80;8.80;;;;;;;2.00;74.55;99822.77;102524;278;112912;-61
2023/03/13 02:44:50;;;;;;;13.10;7.80;;;;;;;1.98;74.61;99818.70;102468;278;94370;-62
2023/03/13 02:47:31;;;;;;;16.50;8.50;;;;;;;1.98;74.75;99818.67;102514;279;97829;-61
2023/03/13 02:50:10;;;;;;;15.20;8.50;;;;;;;2.01;74.72;99818.36;102519;279;119835;-62
2023/03/13 02:52:49;;;;;;;16.40;8.30;;;;;;;2.03;74.80;99813.92;102501;279;105116;-62
2023/03/13 02:55:28;;;;;;;17.30;9.10;;;;;;;2.07;74.94;99815.86;102537;279;113825;-61
2023/03/13 02:58:05;;;;;;;14.30;7.50;;;;;;;2.10;74.89;99817.89;102503;279;93409;-58
2023/03/13 03:00:46;;;;;;;14.10;7.70;;;;;;;2.11;74.85;99817.41;102525;278;98395;-55
2023/03/13 03:03:27;;;;;;;15.20;9.10;;;;;;;2.10;74.89;99825.63;102483;279;118656;-59
2023/03/13 03:06:06;;;;;;;16.40;8.50;;;;;;;2.09;75.01;99823.98;102480;279;105693;-60
2023/03/13 03:08:49;;;;;;;13.70;7.70;;;;;;;2.08;74.98;99821.97;102494;279;114366;-61
2023/03/13 03:11:28;;;;;;;13.80;7.90;;;;;;;2.07;75.11;99823.83;102518;279;95021;-60
2023/03/13 03:14:07;;;;;;;13.40;8.30;;;;;;;2.11;75.07;99825.80;102540;267;97615;-63
2023/03/13 03:16:46;;;;;;;16.70;8.20;;;;;;;2.13;75.06;99820.42;102531;279;120078;-62
2023/03/13 03:19:20;;;;;;;12.50;7.60;;;;;;;2.16;75.21;99815.08;102520;278;106316;-60
2023/03/13 03:21:56;;;;;;;17.60;8.10;;;;;;;2.18;75.29;99812.45;102515;279;114954;-59
2023/03/13 03:24:36;;;;;;;14.30;8.50;;;;;;;2.17;75.37;99814.09;102471;279;93627;-62
2023/03/13 03:27:15;;;;;;;13.80;7.90;;;;;;;2.20;75.33;99820.56;102484;279;97884;-62
2023/03/13 03:29:57;;;;;;;12.70;8.50;;;;;;;2.18;75.44;99819.88;102522;279;119640;-58
2023/03/13 03:32:39;;;;;;;15.10;8.60;;;;;;;2.16;75.35;99816.88;102496;279;105267;-58
2023/03/13 03:35:26;;;;;;;15.40;7.70;;;;;;;2.16;75.37;99819.92;102498;279;115032;-58
2023/03/13 03:38:06;;;;;;;14.80;8.10;;;;;;;2.15;75.40;99811.83;102489;278;95240;-61
2023/03/13 03:40:46;;;;;;;14.30;8.20;;;;;;;2.17;75.56;99809.38;102529;279;97939;-60
2023/03/13 03:43:24;;;;;;;15.90;8.80;;;;;;;2.19;75.60;99808.20;102477;278;119655;-57
2023/03/13 03:46:01;;;;;;;17.80;9.50;;;;;;;2.25;75.53;99807.80;102528;279;104344;-58
2023/03/13 03:48:40;;;;;;;15.30;8.40;;;;;;;2.26;75.60;99810.20;102543;279;112728;-62
2023/03/13 03:51:19;;;;;;;15.70;8.60;;;;;;;2.27;75.50;99802.50;102502;279;93679;-61
2023/03/13 03:54:02;;;;;;;14.30;8.20;;;;;;;2.28;75.43;99797.44;102551;278;98455;-61
2023/03/13 03:56:43;;;;;;;16.10;9.20;;;;;;;2.26;75.51;99787.50;102502;279;119406;-63
2023/03/13 03:59:28;;;;;;;17.70;8.40;;;;;;;2.23;75.46;99785.25;102523;279;105682;-55
2023/03/13 04:02:08;;;;;;;15.40;7.90;;;;;;;2.20;75.55;99783.09;102494;279;114494;-57
2023/03/13 04:04:47;;;;;;;14.80;8.40;;;;;;;2.19;75.55;99782.30;102499;278;95501;-54
2023/03/13 04:07:27;;;;;;;16.90;8.70;;;;;;;2.21;75.78;99785.34;102488;279;98289;-57
2023/03/13 04:10:05;;;;;;;12.60;7.90;;;;;;;2.21;75.84;99779.61;102532;279;119557;-55
2023/03/13 04:12:41;;;;;;;14.60;8.30;;;;;;;2.21;76.04;99775.05;102534;279;105610;-54
2023/03/13 04:15:17;;;;;;;16.60;8.70;;;;;;;2.24;76.14;99773.83;102490;278;114449;-60
2023/03/13 04:17:59;;;;;;;16.30;9.00;;;;;;;2.28;76.33;99772.34;102527;279;94190;-57
2023/03/13 04:20:38;;;;;;;13.70;9.10;;;;;;;2.29;76.51;99769.80;102507;279;96643;-60
2023/03/13 04:23:17;;;;;;;16.20;8.40;;;;;;;2.29;76.69;99763.84;102552;279;119196;-57
2023/03/13 04:25:56;;;;;;;15.60;9.50;;;;;;;2.30;76.87;99763.81;102515;279;105229;-58
2023/03/13 04:28:38;;;;;;;14.30;9.00;;;;;;;2.26;76.99;99758.86;102485;279;114956;-57
2023/03/13 04:31:18;;;;;;;15.00;9.00;;;;;;;2.23;77.20;99755.42;102505;278;95342;-56
2023/03/13 04:33:55;;;;;;;13.30;8.50;;;;;;;2.22;77.25;99747.56;102534;278;97831;-57
2023/03/13 04:36:37;;;;;;;15.10;9.40;;;;;;;2.21;77.32;99743.55;102491;279;118413;-57
2023/03/13 04:39:17;;;;;;;18.60;8.90;;;;;;;2.26;77.58;99742.16;102506;279;105626;-58
2023/03/13 04:41:53;;;;;;;15.80;9.10;;;;;;;2.27;77.72;99737.64;102482;279;114859;-58
2023/03/13 04:44:31;;;;;;;14.70;8.90;;;;;;;2.28;78.05;99744.65;102418;279;97045;-57
2023/03/13 04:47:17;;;;;;;14.50;8.30;;;;;;;2.32;78.08;99750.08;102510;279;97238;-57
2023/03/13 04:49:59;;;;;;;13.30;9.00;;;;;;;2.31;78.48;99742.08;102374;279;120078;-58
2023/03/13 04:52:36;;;;;;;15.10;9.20;;;;;;;2.29;78.72;99738.16;102554;278;104081;-58
2023/03/13 04:55:13;;;;;;;15.20;9.00;;;;;;;2.33;79.05;99734.39;102502;278;113944;-57
2023/03/13 04:57:51;;;;;;;14.00;9.10;;;;;;;2.35;78.93;99729.02;102516;279;95728;-57
2023/03/13 05:00:26;;;;;;;14.40;9.50;;;;;;;2.37;79.06;99729.50;102502;279;97362;-60
2023/03/13 05:03:00;;;;;;;16.30;9.20;;;;;;;2.41;79.31;99728.20;102533;278;119213;-56
2023/03/13 05:05:39;;;;;;;15.90;8.30;;;;;;;2.44;79.34;99719.95;102484;279;105778;-56
2023/03/13 05:08:20;;;;;;;14.80;9.10;;;;;;;2.49;79.24;99722.77;102506;279;113976;-61
2023/03/13 05:11:00;;;;;;;14.60;9.90;;;;;;;2.46;79.45;99720.42;102493;279;93529;-61
2023/03/13 05:13:37;;;;;;;14.50;9.10;;;;;;;2.45;80.17;99721.23;102527;279;96431;-61
2023/03/13 05:16:19;;;;;;;15.20;9.90;;;;;;;2.45;80.30;99712.43;102514;278;118844;-60
2023/03/13 05:18:59;;;;;;;14.90;9.50;;;;;;;2.44;80.09;99714.94;102493;279;105848;-58
2023/03/13 05:21:38;;;;;;;17.50;9.90;;;;;;;2.45;80.04;99713.41;102518;279;114080;-59
2023/03/13 05:24:21;;;;;;;16.40;9.40;;;;;;;2.45;80.10;99715.04;102488;279;95770;-61
2023/03/13 05:26:57;;;;;;;13.10;9.20;;;;;;;2.43;80.32;99715.83;102478;279;97236;-62
2023/03/13 05:29:36;;;;;;;15.60;9.60;;;;;;;2.47;80.29;99717.13;102531;279;119555;-54
2023/03/13 05:32:12;;;;;;;15.80;9.90;;;;;;;2.56;80.28;99714.56;102513;279;106389;-56
2023/03/13 05:34:50;;;;;;;13.90;9.50;;;;;;;2.61;80.55;99715.64;102494;279;112911;-61
2023/03/13 05:37:30;;;;;;;16.60;9.10;;;;;;;2.64;80.78;99711.63;102526;279;94493;-62
2023/03/13 05:40:10;;;;;;;14.80;9.70;;;;;;;2.62;80.89;99714.85;102531;279;97858;-56
2023/03/13 05:42:47;;;;;;;13.70;9.60;;;;;;;2.70;80.94;99717.63;102516;279;117726;-56
2023/03/13 05:45:21;;;;;;;15.10;9.00;;;;;;;2.76;81.05;99724.16;102492;279;103610;-59
2023/03/13 05:47:59;;;;;;;17.70;10.20;;;;;;;2.80;81.20;99720.83;102528;279;112477;-59
2023/03/13 05:50:45;;;;;;;17.60;9.80;;;;;;;2.81;81.13;99717.52;102480;279;95979;-59
2023/03/13 05:53:26;;;;;;;13.80;9.70;;;;;;;2.86;81.39;99719.30;102561;267;98327;-62
2023/03/13 05:56:03;;;;;;;15.90;9.70;;;;;;;2.91;81.17;99721.71;102499;279;120261;-60
2023/03/13 05:58:43;;;;;;;15.20;10.20;;;;;;;2.88;81.37;99724.09;102512;279;104343;-57
2023/03/13 06:01:18;;;;;;;14.80;10.30;;;;;;;2.92;81.43;99721.22;102500;279;114342;-56
2023/03/13 06:03:54;;;;;;;16.20;11.00;;;;;;;2.96;81.54;99712.23;102497;279;96271;-59
2023/03/13 06:06:35;;;;;;;15.80;10.20;;;;;;;3.02;81.50;99701.51;102535;279;97376;-59
2023/03/13 06:09:15;;;;;;;15.70;10.50;;;;;;;3.03;81.75;99710.70;102518;278;118393;-60
2023/03/13 06:11:51;;;;;;;16.20;11.10;;;;;;;3.06;81.73;99706.77;102522;279;106872;-60
2023/03/13 06:14:30;;;;;;;16.40;11.00;;;;;;;3.07;81.70;99712.77;102513;279;114369;-56
2023/03/13 06:17:08;;;;;;;16.70;11.40;;;;;;;3.08;81.94;99705.67;102532;279;95771;-57
2023/03/13 06:19:44;;;;;;;14.60;11.00;;;;;;;3.16;81.84;99701.50;102508;279;98307;-56
2023/03/13 06:22:25;;;;;;;17.20;11.70;;;;;;;3.20;82.14;99703.20;102491;278;117672;-57
2023/03/13 06:25:05;;;;;;;18.30;11.40;;;;;;;3.26;82.39;99705.20;102402;279;106765;-60
2023/03/13 06:27:41;;;;;;;16.50;11.50;;;;;;;3.31;82.39;99703.02;102487;279;114331;-60
2023/03/13 06:30:20;;;;;;;15.00;11.20;;;;;;;3.32;82.45;99703.86;102466;279;96018;-57
2023/03/13 06:32:56;;;;;;;17.40;11.00;;;;;;;3.31;82.55;99698.98;102544;279;96889;-59
2023/03/13 06:35:36;;;;;;;18.00;12.30;;;;;;;3.35;82.75;99705.10;102505;278;117959;-60
2023/03/13 06:38:19;;;;;;;16.60;11.40;;;;;;;3.39;82.73;99703.52;102528;279;105912;-61
2023/03/13 06:40:56;;;;;;;18.70;11.40;;;;;;;3.37;82.83;99705.68;102509;278;114910;-60
2023/03/13 06:43:31;;;;;;;18.60;12.70;;;;;;;3.41;83.00;99704.47;102528;279;96011;-62
2023/03/13 06:46:17;;;;;;;16.50;11.70;;;;;;;3.48;83.12;99698.98;102512;279;96742;-61
2023/03/13 06:48:57;;;;;;;15.70;11.00;;;;;;;3.53;83.15;99696.10;102528;279;118556;-62
2023/03/13 06:51:34;;;;;;;17.20;11.50;;;;;;;3.50;83.66;99692.69;102504;279;104070;-62
2023/03/13 06:54:09;;;;;;;17.10;11.60;;;;;;;3.55;83.56;99696.77;102524;279;115420;-57
2023/03/13 06:56:48;;;;;;;18.60;11.90;;;;;;;3.60;83.61;99689.34;102502;278;96134;-56
2023/03/13 06:59:27;;;;;;;20.00;11.90;;;;;;;3.61;83.55;99691.69;102521;278;98069;-56
2023/03/13 07:02:04;;;;;;;17.40;11.80;;;;;;;3.68;83.69;99689.67;102509;279;118701;-55
2023/03/13 07:04:46;;;;;;;16.40;11.20;;;;;;;3.71;83.94;99687.21;102485;278;105868;-57
2023/03/13 07:07:25;;;;;;;16.90;11.80;;;;;;;3.74;84.14;99688.48;102480;279;114724;-55
2023/03/13 07:10:04;;;;;;;19.60;12.90;;;;;;;3.82;83.77;99682.96;102560;279;95000;-60
2023/03/13 07:12:46;;;;;;;20.80;12.10;;;;;;;3.89;83.84;99678.73;102536;278;98426;-61
2023/03/13 07:15:29;;;;;;;17.90;12.00;;;;;;;3.96;83.96;99680.45;102490;279;119584;-63
2023/03/13 07:18:12;;;;;;;18.10;12.90;;;;;;;3.94;84.17;99683.65;102502;279;105340;-62
2023/03/13 07:20:54;;;;;;;17.90;11.00;;;;;;;3.90;84.24;99683.17;102481;279;114185;-62
2023/03/13 07:23:31;;;;;;;20.20;11.80;;;;;;;3.93;84.23;99680.41;102516;279;95431;-63
2023/03/13 07:26:08;;;;;;;18.50;10.40;;;;;;;3.97;84.17;99675.80;102510;279;97073;-62
2023/03/13 07:28:48;;;;;;;15.40;10.20;;;;;;;4.05;84.10;99677.70;102496;279;118419;-58
2023/03/13 07:31:25;;;;;;;17.80;11.30;;;;;;;4.12;84.00;99672.98;102503;279;104923;-58
2023/03/13 07:34:05;;;;;;;16.00;11.10;;;;;;;4.19;84.04;99671.64;102561;279;114932;-60
2023/03/13 07:36:45;;;;;;;14.60;10.40;;;;;;;4.25;83.94;99666.77;101994;279;587507;-60
2023/03/13 07:39:26;;;;;;;17.40;10.20;;;;;;;4.24;83.94;99660.09;102513;279;96815;-61
2023/03/13 07:42:06;;;;;;;15.30;10.50;;;;;;;4.31;84.11;99661.09;102541;279;120391;-60
2023/03/13 07:44:43;;;;;;;16.40;10.80;;;;;;;4.49;84.04;99661.19;102596;279;106182;-61
2023/03/13 07:47:22;;;;;;;13.50;9.80;;;;;;;4.63;84.17;99657.19;102511;278;114289;-61
2023/03/13 07:50:01;;;;;;;16.80;11.10;;;;;;;4.74;84.09;99656.11;102512;278;95353;-58
2023/03/13 07:52:45;;;;;;;13.90;9.80;;;;;;;4.90;83.87;99654.52;102504;278;97684;-58
2023/03/13 07:55:20;;;;;;;15.40;10.20;;;;;;;4.99;83.80;99654.20;102510;279;120079;-60
2023/03/13 07:57:52;;;;;;;;;;;;;;;5.05;83.59;99649.77;102524;279;106268;-57
2023/03/13 08:00:28;;;;;;;15.90;11.10;;;;;;;5.14;83.73;99648.30;102527;279;113594;-58
2023/03/13 08:03:11;;;;;;;14.70;9.50;;;;;;;5.24;83.54;99648.29;102412;279;96534;-59
2023/03/13 08:05:59;;;;;;;13.90;9.70;;;;;;;5.28;83.27;99643.92;102565;279;97584;-59
2023/03/13 08:08:40;;;;;;;13.20;9.30;;;;;;;5.39;83.31;99633.02;102548;279;119530;-62
2023/03/13 08:11:18;;;;;;;16.60;9.30;;;;;;;5.60;83.25;99630.77;102505;279;104198;-62
2023/03/13 08:13:56;;;;;;;16.30;8.80;;;;;;;5.70;83.14;99630.81;102480;279;113066;-58
2023/03/13 08:16:41;;;;;;;15.20;9.60;;;;;;;5.81;82.99;99625.75;102490;279;94655;-57
2023/03/13 08:19:17;;;;;;;;;;;;;;;5.97;82.83;99626.67;102546;278;97690;-59
2023/03/13 08:21:57;;;;;;;12.10;9.30;;;;;;;5.98;82.61;99627.61;102494;279;119463;-58
2023/03/13 08:24:33;;;;;;;14.40;9.30;;;;;;;5.98;82.40;99631.48;102545;279;105710;-58
2023/03/13 08:27:12;;;;;;;13.40;8.80;;;;;;;5.96;82.29;99633.51;102509;279;114711;-57
2023/03/13 08:29:51;;;;;;;13.10;8.80;;;;;;;5.96;82.20;99629.92;102508;279;95775;-61
2023/03/13 08:32:29;;;;;;;10.40;7.80;;;;;;;6.03;82.19;99633.10;102498;279;98190;-62
2023/03/13 08:35:13;;;;;;;12.50;8.80;;;;;;;6.01;82.13;99627.27;102497;278;119133;-58
2023/03/13 08:37:52;;;;;;;13.10;8.40;;;;;;;6.09;82.20;99626.05;102498;279;104593;-59
2023/03/13 08:40:33;;;;;;;11.80;8.10;;;;;;;6.14;82.21;99622.21;102508;279;114356;-60
2023/03/13 08:43:13;;;;;;;12.00;7.90;;;;;;;6.22;82.15;99614.52;102524;279;95157;-60
2023/03/13 08:45:58;;;;;;;14.50;8.40;;;;;;;6.27;81.95;99613.23;102523;279;97365;-61
2023/03/13 08:48:34;;;;;;;13.40;8.20;;;;;;;6.32;81.80;99608.36;102534;278;119965;-61
2023/03/13 08:51:12;;;;;;;13.90;8.40;;;;;;;6.35;81.70;99602.39;102497;279;105563;-61
2023/03/13 08:53:48;;;;;;;15.50;8.50;;;;;;;6.39;81.74;99596.21;102470;279;114105;-58
2023/03/13 08:56:26;;;;;;;12.90;7.80;;;;;;;6.50;81.60;99590.94;102493;279;94871;-58
2023/03/13 08:59:03;;;;;;;16.20;8.10;;;;;;;6.66;81.69;99583.06;102529;279;97551;-58
2023/03/13 09:01:44;;;;;;;14.50;8.40;;;;;;;6.86;81.69;99576.52;102501;279;119888;-57
2023/03/13 09:04:19;;;;;;;13.20;8.30;;;;;;;7.06;81.31;99569.81;102493;279;106415;-61
2023/03/13 09:07:02;;;;;;;11.80;8.30;;;;;;;7.27;81.17;99562.88;102486;279;114257;-62
2023/03/13 09:09:42;;;;;;;11.10;7.70;;;;;;;7.64;81.24;99562.19;102559;279;94127;-62
2023/03/13 09:12:19;;;;;;;8.90;7.60;;;;;;;8.04;81.12;99558.05;102510;279;98040;-62
2023/03/13 09:15:03;;;;;;;16.00;8.90;;;;;;;8.38;80.77;99552.07;102486;279;118937;-58
2023/03/13 09:17:39;;;;;;;12.40;7.10;;;;;;;8.66;79.82;99539.05;102522;279;105743;-58
2023/03/13 09:20:17;;;;;;;13.00;7.60;;;;;;;8.93;79.63;99528.31;102500;279;112387;-61
2023/03/13 09:22:57;;;;;;;11.80;8.20;;;;;;;9.25;79.68;99524.14;102511;279;94554;-58
2023/03/13 09:25:37;;;;;;;12.00;7.60;;;;;;;9.72;79.87;99519.18;102504;278;97686;-62
2023/03/13 09:28:15;;;;;;;13.30;7.90;;;;;;;10.07;79.00;99515.21;102513;279;119632;-59
2023/03/13 09:31:06;;;;;;;12.10;7.80;;;;;;;10.47;78.81;99511.42;102515;278;106566;-58
2023/03/13 09:33:47;;;;;;;10.70;7.70;;;;;;;10.66;77.77;99509.30;102491;278;115028;-58
2023/03/13 09:36:29;;;;;;;11.60;7.00;;;;;;;10.80;77.30;99508.02;102474;279;94935;-59
2023/03/13 09:39:09;;;;;;;13.60;6.40;;;;;;;10.92;76.65;99501.73;102533;279;97688;-58
2023/03/13 09:41:55;;;;;;;10.50;6.10;;;;;;;11.09;76.39;99503.17;102530;279;118800;-59
2023/03/13 09:44:38;;;;;;;10.10;6.40;;;;;;;11.31;76.38;99497.45;102517;267;104882;-59
2023/03/13 09:47:24;;;;;;;11.40;5.90;;;;;;;11.49;75.98;99497.02;102498;278;114748;-59
2023/03/13 09:50:14;;;;;;;10.50;6.80;;;;;;;11.64;75.11;99493.30;102523;278;94673;-58
2023/03/13 09:53:01;;;;;;;13.10;6.50;;;;;;;11.54;75.03;99486.27;102519;279;97353;-60
2023/03/13 09:55:42;;;;;;;9.60;5.70;;;;;;;11.48;74.37;99481.34;102542;278;120234;-62
2023/03/13 09:58:28;;;;;;;11.10;5.60;;;;;;;11.31;73.56;99480.03;102514;278;105592;-60
2023/03/13 10:01:21;;;;;;;9.70;5.50;;;;;;;11.14;73.70;99476.36;102517;279;114362;-63
2023/03/13 10:04:08;;;;;;;12.40;6.90;;;;;;;11.13;73.58;99473.49;102507;279;94936;-58
2023/03/13 10:06:50;;;;;;;14.00;6.00;;;;;;;11.09;73.30;99465.73;102470;278;97541;-59
2023/03/13 10:09:36;;;;;;;10.70;6.10;;;;;;;11.04;73.07;99465.23;102507;278;119628;-58
2023/03/13 10:12:20;;;;;;;10.90;5.80;;;;;;;11.07;73.40;99466.21;102510;279;105865;-57
2023/03/13 10:15:18;;;;;;;11.40;5.70;;;;;;;11.07;73.43;99461.94;102512;279;114707;-61
2023/03/13 10:17:59;;;;;;;16.30;6.80;;;;;;;11.10;73.47;99463.02;102500;279;94774;-59
2023/03/13 10:20:37;;;;;;;11.60;5.80;;;;;;;11.12;73.43;99462.15;102507;279;97004;-59
2023/03/13 10:23:18;;;;;;;9.40;5.10;;;;;;;11.05;72.99;99464.23;102513;279;119084;-63
2023/03/13 10:25:57;;;;;;;14.20;5.40;;;;;;;11.01;73.06;99462.51;102515;279;105951;-63
2023/03/13 10:28:38;;;;;;;9.30;5.30;;;;;;;11.10;73.34;99466.77;102525;279;113520;-58
2023/03/13 10:31:26;;;;;;;14.10;5.70;;;;;;;11.10;72.83;99463.66;102504;279;95116;-57
2023/03/13 10:34:13;;;;;;;25.20;5.90;;;;;;;10.98;72.79;99461.64;102523;279;98099;-57
2023/03/13 10:36:47;;;;;;;;;;;;;;;10.96;73.09;99463.19;102552;279;119809;-57
2023/03/13 10:39:26;;;;;;;10.70;5.40;;;;;;;10.84;73.29;99457.13;102524;278;104032;-59
2023/03/13 10:42:20;;;;;;;13.10;5.40;;;;;;;10.85;73.50;99448.89;102497;279;115084;-59
2023/03/13 10:45:07;;;;;;;11.30;5.40;;;;;;;10.90;73.59;99438.27;102474;279;95715;-58
2023/03/13 10:47:53;;;;;;;12.20;5.60;;;;;;;10.93;73.87;99435.96;102511;279;98053;-58
2023/03/13 10:50:36;;;;;;;12.90;5.30;;;;;;;10.97;74.13;99430.02;102497;279;118379;-63
2023/03/13 10:53:32;;;;;;;11.30;5.00;;;;;;;11.03;74.11;99425.74;102499;279;104486;-59
2023/03/13 10:56:16;;;;;;;13.70;5.30;;;;;;;11.12;74.51;99422.27;102539;279;114529;-58
2023/03/13 10:58:56;;;;;;;14.60;5.50;;;;;;;11.28;74.65;99417.20;102519;279;93610;-58
2023/03/13 11:01:44;;;;;;;14.50;5.60;;;;;;;11.38;74.43;99408.17;102556;279;96696;-57
2023/03/13 11:04:33;;;;;;;12.40;4.70;;;;;;;11.43;74.61;99404.31;102517;279;119906;-57
2023/03/13 11:07:22;;;;;;;20.20;10.80;;;;;;;11.50;74.20;99404.06;102514;279;106400;-59
2023/03/13 11:10:18;;;;;;;12.70;6.50;;;;;;;11.52;73.69;99393.96;102503;279;114030;-62
2023/03/13 11:12:57;;;;;;;16.80;7.80;;;;;;;11.47;73.29;99385.88;102514;278;94788;-58
2023/03/13 11:15:39;;;;;;;12.10;5.80;;;;;;;11.46;73.44;99385.04;102518;279;97623;-57
2023/03/13 11:18:25;;;;;;;12.80;7.20;;;;;;;11.51;73.28;99378.88;102517;279;119713;-61
2023/03/13 11:21:04;;;;;;;13.10;6.30;;;;;;;11.59;73.06;99367.99;102515;279;104892;-62
2023/03/13 11:23:50;;;;;;;11.20;6.10;;;;;;;11.70;72.84;99369.03;102567;279;113713;-58
2023/03/13 11:26:37;;;;;;;13.30;5.70;;;;;;;11.78;72.46;99358.86;102524;279;93573;-59
2023/03/13 11:29:25;;;;;;;10.40;4.40;;;;;;;11.89;72.18;99339.10;102512;279;96861;-63
2023/03/13 11:32:07;;;;;;;14.80;5.90;;;;;;;12.01;71.99;99327.12;102473;278;119092;-61
2023/03/13 11:34:48;;;;;;;10.60;5.20;;;;;;;12.23;71.04;99325.63;102448;279;105454;-59
2023/03/13 11:37:35;;;;;;;11.00;4.90;;;;;;;12.36;70.59;99317.75;102499;279;115119;-59
2023/03/13 11:40:30;;;;;;;10.30;5.10;;;;;;;12.43;69.67;99316.55;102506;278;94961;-64
2023/03/13 11:43:37;;;;;;;12.70;5.90;;;;;;;12.57;69.40;99309.94;102554;279;98232;-63
2023/03/13 11:46:46;;;;;;;12.60;5.10;;;;;;;12.63;69.41;99304.31;102515;279;119398;-63
2023/03/13 11:50:08;;;;;;;15.90;5.40;;;;;;;12.66;69.04;99296.48;102532;279;106515;-63
2023/03/13 11:53:09;;;;;;;12.70;4.80;;;;;;;12.67;68.47;99292.63;102421;279;114577;-62
2023/03/13 11:56:06;;;;;;;10.60;4.80;;;;;;;12.71;69.11;99289.46;102539;278;95198;-61
2023/03/13 11:59:03;;;;;;;13.90;6.40;;;;;;;12.81;68.82;99287.35;102532;279;97498;-58
2023/03/13 12:01:42;;;;;;;14.20;5.70;;;;;;;12.84;68.21;99282.29;102521;279;117287;-58
2023/03/13 12:04:30;;;;;;;10.90;4.60;;;;;;;12.81;68.49;99282.64;102570;279;105760;-63
2023/03/13 12:07:19;;;;;;;12.10;5.00;;;;;;;12.75;68.27;99276.14;102495;279;115178;-63
2023/03/13 12:09:59;;;;;;;10.90;5.10;;;;;;;12.69;67.96;99274.19;102492;279;94826;-59
2023/03/13 12:12:46;;;;;;;11.80;4.90;;;;;;;12.68;68.16;99276.05;102478;278;96731;-58
2023/03/13 12:15:30;;;;;;;9.70;4.50;;;;;;;12.54;67.27;99279.73;102496;279;119796;-63
2023/03/13 12:18:20;;;;;;;13.80;5.90;;;;;;;12.40;67.48;99276.66;102508;279;108477;-63
2023/03/13 12:21:05;;;;;;;15.20;6.80;;;;;;;12.36;67.87;99275.62;102522;279;113273;-63
2023/03/13 12:23:50;;;;;;;12.70;5.00;;;;;;;12.28;68.31;99266.27;102466;279;94758;-57
2023/03/13 12:26:35;;;;;;;13.40;5.30;;;;;;;12.21;68.46;99262.29;102538;279;98021;-59
2023/03/13 12:29:27;;;;;;;20.00;8.60;;;;;;;12.09;68.46;99259.13;102535;278;120960;-59
2023/03/13 12:32:13;;;;;;;14.30;6.00;;;;;;;12.09;69.08;99256.73;102460;279;105281;-59